Time;durP1;ratioP1;P1;durP2;ratioP2;P2;SDS_P1;SDS_P2;PMS_P1;PMS_P2;Temp;Humidity;BMP_temperature;BMP_pressure;BME280_temperature;BME280_humidity;BME280_pressure;Samples;Min_cycle;Max_cycle;Signal;HPM_P1;HPM_P2
2023/04/28 00:01:18;;;;;;;12.80;6.82;;;9.10;96.00;;;;;;5070355;28;20119;-85
2023/04/28 00:03:43;;;;;;;14.20;6.88;;;9.00;96.90;;;;;;5054562;28;20101;-85
2023/04/28 00:06:10;;;;;;;15.55;6.93;;;9.00;96.60;;;;;;5055473;28;20139;-85
2023/04/28 00:08:36;;;;;;;12.60;7.43;;;9.00;96.60;;;;;;5054760;28;20039;-85
2023/04/28 00:11:01;;;;;;;15.18;7.10;;;9.00;96.60;;;;;;5058397;28;20036;-85
2023/04/28 00:13:27;;;;;;;14.35;7.78;;;9.00;96.70;;;;;;5059195;28;20044;-85
2023/04/28 00:15:53;;;;;;;13.88;7.10;;;8.90;96.80;;;;;;5066774;28;20079;-85
2023/04/28 00:18:19;;;;;;;15.18;7.00;;;8.90;97.00;;;;;;5059389;28;20082;-84
2023/04/28 00:20:45;;;;;;;12.50;7.15;;;8.90;96.80;;;;;;5075642;28;20519;-84
2023/04/28 00:23:11;;;;;;;15.85;7.32;;;8.90;96.70;;;;;;5039463;28;20028;-84
2023/04/28 00:25:36;;;;;;;13.57;6.85;;;8.90;96.90;;;;;;5057961;28;20044;-85
2023/04/28 00:28:02;;;;;;;12.13;6.75;;;8.90;96.80;;;;;;5061186;28;20421;-85
2023/04/28 00:30:29;;;;;;;12.18;6.65;;;8.90;97.10;;;;;;5038595;28;20090;-85
2023/04/28 00:32:55;;;;;;;15.32;7.75;;;8.90;97.00;;;;;;5037948;28;20036;-85
2023/04/28 00:35:20;;;;;;;14.07;7.57;;;8.90;97.40;;;;;;5055254;28;20047;-85
2023/04/28 00:37:46;;;;;;;17.70;7.38;;;8.90;98.20;;;;;;5055057;28;20044;-85
2023/04/28 00:40:12;;;;;;;17.17;7.50;;;8.80;97.90;;;;;;5052947;28;20403;-85
2023/04/28 00:42:38;;;;;;;13.48;7.00;;;8.80;97.80;;;;;;5058742;28;20493;-85
2023/04/28 00:45:06;;;;;;;12.90;7.22;;;8.80;97.60;;;;;;5055499;28;20048;-85
2023/04/28 00:47:36;;;;;;;14.07;6.80;;;8.80;97.70;;;;;;5038646;28;20045;-85
2023/04/28 00:50:04;;;;;;;13.15;7.05;;;8.80;97.50;;;;;;5057670;28;20036;-85
2023/04/28 00:52:30;;;;;;;11.93;6.68;;;8.70;97.70;;;;;;5058822;28;20048;-85
2023/04/28 00:54:56;;;;;;;14.45;6.90;;;8.70;97.70;;;;;;5071820;28;20425;-85
2023/04/28 00:57:22;;;;;;;13.20;6.43;;;8.70;97.60;;;;;;5054836;28;20033;-84
2023/04/28 00:59:48;;;;;;;13.40;6.18;;;8.70;97.50;;;;;;5038346;28;20106;-85
2023/04/28 01:02:16;;;;;;;13.32;6.57;;;8.60;97.50;;;;;;5062951;28;20043;-84
2023/04/28 01:04:43;;;;;;;17.50;6.50;;;8.60;97.40;;;;;;5037964;28;20482;-84
2023/04/28 01:07:09;;;;;;;15.73;7.03;;;8.60;97.40;;;;;;5055345;28;20072;-85
2023/04/28 01:09:34;;;;;;;12.90;6.90;;;8.60;97.60;;;;;;5046748;28;20067;-85
2023/04/28 01:12:00;;;;;;;14.60;6.70;;;8.60;97.30;;;;;;5074774;28;20039;-85
2023/04/28 01:14:26;;;;;;;12.77;6.85;;;8.60;97.60;;;;;;5055209;28;20122;-85
2023/04/28 01:16:52;;;;;;;13.20;6.90;;;8.60;97.60;;;;;;5038120;28;20037;-85
2023/04/28 01:19:22;;;;;;;13.73;6.32;;;8.60;97.20;;;;;;5054931;28;20044;-85
2023/04/28 01:21:49;;;;;;;12.20;7.35;;;8.60;97.90;;;;;;5054264;28;20040;-84
2023/04/28 01:24:15;;;;;;;15.98;7.45;;;8.50;97.60;;;;;;5071302;28;20134;-85
2023/04/28 01:26:41;;;;;;;12.90;6.90;;;8.50;97.60;;;;;;5074572;28;20116;-84
2023/04/28 01:29:06;;;;;;;14.18;7.05;;;8.50;97.60;;;;;;5074732;28;20074;-84
2023/04/28 01:31:32;;;;;;;13.65;7.15;;;8.50;97.40;;;;;;5057421;28;20039;-84
2023/04/28 01:33:58;;;;;;;16.13;6.90;;;8.50;97.80;;;;;;5057757;28;20119;-84
2023/04/28 01:36:23;;;;;;;13.88;7.43;;;8.50;97.30;;;;;;5054618;28;20485;-84
2023/04/28 01:38:50;;;;;;;13.85;6.20;;;8.50;97.30;;;;;;5038355;28;20044;-84
2023/04/28 01:41:15;;;;;;;14.10;6.90;;;8.50;97.30;;;;;;5072029;28;20444;-84
2023/04/28 01:43:42;;;;;;;12.15;6.95;;;8.50;97.30;;;;;;5074661;28;20039;-84
2023/04/28 01:46:08;;;;;;;15.25;7.10;;;8.50;97.70;;;;;;5068595;28;20042;-84
2023/04/28 01:48:34;;;;;;;14.23;7.05;;;8.50;97.40;;;;;;5071120;28;20040;-84
2023/04/28 01:51:00;;;;;;;16.60;6.13;;;8.50;97.20;;;;;;5074227;28;20383;-84
2023/04/28 01:53:25;;;;;;;13.70;7.00;;;8.50;97.10;;;;;;5066259;28;20033;-84
2023/04/28 01:55:52;;;;;;;13.20;6.40;;;8.50;97.60;;;;;;5036784;28;20101;-84
2023/04/28 01:58:17;;;;;;;11.30;6.35;;;8.50;97.20;;;;;;5061220;28;20076;-84
2023/04/28 02:00:43;;;;;;;11.98;6.13;;;8.50;97.00;;;;;;5053364;28;20040;-84
2023/04/28 02:03:08;;;;;;;12.43;6.45;;;8.50;97.10;;;;;;5052599;28;20043;-84
2023/04/28 02:05:34;;;;;;;14.65;7.07;;;8.40;97.40;;;;;;5036431;28;20115;-84
2023/04/28 02:08:00;;;;;;;12.63;6.53;;;8.50;96.90;;;;;;5072741;28;20043;-84
2023/04/28 02:10:25;;;;;;;13.18;6.75;;;8.50;96.70;;;;;;5052001;28;20549;-84
2023/04/28 02:12:51;;;;;;;14.98;7.57;;;8.50;96.40;;;;;;5037069;28;20522;-84
2023/04/28 02:15:16;;;;;;;13.88;6.65;;;8.50;96.80;;;;;;5036785;28;20029;-84
2023/04/28 02:17:42;;;;;;;14.52;7.10;;;8.50;96.50;;;;;;5043646;28;20092;-84
2023/04/28 02:20:08;;;;;;;11.80;7.10;;;8.40;96.90;;;;;;5073254;28;20044;-84
2023/04/28 02:22:34;;;;;;;14.93;7.38;;;8.40;97.10;;;;;;5068186;28;20115;-84
2023/04/28 02:24:59;;;;;;;13.70;7.43;;;8.40;96.80;;;;;;5036926;28;20517;-84
2023/04/28 02:27:25;;;;;;;11.80;6.63;;;8.30;97.50;;;;;;5037450;28;20032;-84
2023/04/28 02:29:51;;;;;;;13.30;6.38;;;8.40;97.00;;;;;;5036626;28;20579;-84
2023/04/28 02:32:17;;;;;;;16.40;6.70;;;8.30;96.90;;;;;;5053106;28;20046;-84
2023/04/28 02:34:42;;;;;;;13.45;6.63;;;8.30;97.00;;;;;;5053074;28;20512;-84
2023/04/28 02:37:08;;;;;;;13.80;6.97;;;8.30;97.30;;;;;;5050011;28;20523;-84
2023/04/28 02:39:34;;;;;;;12.52;7.40;;;8.30;97.40;;;;;;5072088;28;20420;-84
2023/04/28 02:42:00;;;;;;;12.35;6.78;;;8.30;97.80;;;;;;5072236;28;20036;-84
2023/04/28 02:44:25;;;;;;;14.75;6.72;;;8.30;97.40;;;;;;5072493;28;20036;-84
2023/04/28 02:46:51;;;;;;;15.07;7.25;;;8.30;97.40;;;;;;5055644;28;20455;-84
2023/04/28 02:49:17;;;;;;;15.27;7.57;;;8.30;97.60;;;;;;5059951;28;20051;-84
2023/04/28 02:51:42;;;;;;;15.95;7.10;;;8.30;97.60;;;;;;5052626;28;20054;-84
2023/04/28 02:54:08;;;;;;;14.07;7.40;;;8.20;97.70;;;;;;5044565;28;20033;-84
2023/04/28 02:56:34;;;;;;;13.05;6.65;;;8.20;97.40;;;;;;5035873;28;20044;-84
2023/04/28 02:59:00;;;;;;;18.00;7.75;;;8.20;97.60;;;;;;5044488;28;20040;-84
2023/04/28 03:01:25;;;;;;;15.43;7.75;;;8.20;97.70;;;;;;5035350;28;20490;-84
2023/04/28 03:03:51;;;;;;;13.35;7.82;;;8.20;97.70;;;;;;5035513;28;20136;-84
2023/04/28 03:06:17;;;;;;;15.18;7.60;;;8.20;97.90;;;;;;5053226;28;20044;-84
2023/04/28 03:08:42;;;;;;;14.05;6.78;;;8.20;98.00;;;;;;5072333;28;20115;-84
2023/04/28 03:11:08;;;;;;;14.75;8.05;;;8.20;98.00;;;;;;5071938;28;20032;-84
2023/04/28 03:13:34;;;;;;;13.63;7.10;;;8.20;97.90;;;;;;5072855;28;20043;-84
2023/04/28 03:16:00;;;;;;;14.05;7.63;;;8.20;98.00;;;;;;5072017;28;20082;-85
2023/04/28 03:18:26;;;;;;;13.57;7.38;;;8.10;98.00;;;;;;5035315;28;20036;-84
2023/04/28 03:20:51;;;;;;;12.38;6.88;;;8.10;98.10;;;;;;5035774;28;20128;-84
2023/04/28 03:23:17;;;;;;;15.63;7.53;;;8.10;98.00;;;;;;5043659;28;20028;-84
2023/04/28 03:25:43;;;;;;;16.13;8.13;;;8.10;97.90;;;;;;5035191;28;20811;-84
2023/04/28 03:28:09;;;;;;;18.77;6.97;;;8.10;98.10;;;;;;5060396;28;20532;-84
2023/04/28 03:30:35;;;;;;;13.60;7.00;;;8.10;98.00;;;;;;5064087;28;20085;-84
2023/04/28 03:33:00;;;;;;;13.57;7.07;;;8.10;97.90;;;;;;5072016;28;20036;-84
2023/04/28 03:35:26;;;;;;;14.25;6.90;;;8.10;98.00;;;;;;5038491;28;20082;-84
2023/04/28 03:37:52;;;;;;;16.10;7.47;;;8.10;97.90;;;;;;5052294;28;20047;-84
2023/04/28 03:40:18;;;;;;;14.63;7.20;;;8.10;98.10;;;;;;5062299;28;20119;-84
2023/04/28 03:42:43;;;;;;;19.60;7.82;;;8.10;98.20;;;;;;5072483;28;20047;-84
2023/04/28 03:45:09;;;;;;;16.00;7.38;;;8.10;98.30;;;;;;5073729;28;20173;-84
2023/04/28 03:47:35;;;;;;;13.00;6.88;;;8.10;98.60;;;;;;5045278;28;20182;-84
2023/04/28 03:50:01;;;;;;;14.93;6.88;;;8.10;98.40;;;;;;5055976;28;20111;-84
2023/04/28 03:52:27;;;;;;;13.80;7.32;;;8.10;98.70;;;;;;5063915;28;20046;-84
2023/04/28 03:54:52;;;;;;;13.65;6.90;;;8.10;98.90;;;;;;5056125;28;20036;-84
2023/04/28 03:57:18;;;;;;;16.17;7.10;;;8.10;98.90;;;;;;5055872;28;20037;-84
2023/04/28 03:59:44;;;;;;;15.60;8.15;;;8.10;99.40;;;;;;5074390;28;20177;-84
2023/04/28 04:02:09;;;;;;;15.63;7.63;;;8.10;99.20;;;;;;5076054;28;20429;-84
2023/04/28 04:04:35;;;;;;;19.98;7.65;;;8.10;99.00;;;;;;5066007;28;20048;-84
2023/04/28 04:07:01;;;;;;;13.82;7.15;;;8.00;99.00;;;;;;5059436;28;20036;-85
2023/04/28 04:09:27;;;;;;;14.32;7.18;;;8.00;99.00;;;;;;5074164;28;20469;-84
2023/04/28 04:11:52;;;;;;;15.57;7.20;;;8.00;99.10;;;;;;5057049;28;20111;-84
2023/04/28 04:14:18;;;;;;;14.18;7.63;;;8.00;99.40;;;;;;5038642;28;20457;-84
2023/04/28 04:16:46;;;;;;;16.15;8.25;;;8.00;99.10;;;;;;5063323;28;20067;-84
2023/04/28 04:19:11;;;;;;;16.50;7.43;;;8.00;98.90;;;;;;5055276;28;20037;-84
2023/04/28 04:21:37;;;;;;;16.60;7.55;;;8.00;98.90;;;;;;5054315;28;20391;-84
2023/04/28 04:24:02;;;;;;;14.93;7.88;;;8.00;98.80;;;;;;5049661;28;20066;-84
2023/04/28 04:26:28;;;;;;;13.20;7.55;;;8.00;99.00;;;;;;5072356;28;20036;-84
2023/04/28 04:28:54;;;;;;;13.80;7.43;;;8.00;98.90;;;;;;5037320;28;20046;-84
2023/04/28 04:31:21;;;;;;;17.67;7.40;;;8.00;99.00;;;;;;5054028;28;20044;-84
2023/04/28 04:33:47;;;;;;;11.90;6.75;;;8.00;99.30;;;;;;5062263;28;20574;-84
2023/04/28 04:36:12;;;;;;;19.60;7.45;;;8.10;99.40;;;;;;5037621;28;20043;-84
2023/04/28 04:38:38;;;;;;;14.07;7.50;;;8.10;99.60;;;;;;5043293;28;20032;-84
2023/04/28 04:41:03;;;;;;;14.10;7.28;;;8.00;99.50;;;;;;5057213;28;20497;-84
2023/04/28 04:43:29;;;;;;;13.63;7.30;;;8.10;99.20;;;;;;5058171;28;20047;-84
2023/04/28 04:45:55;;;;;;;14.15;7.63;;;8.10;99.30;;;;;;5048702;28;20053;-84
2023/04/28 04:48:21;;;;;;;15.30;7.60;;;8.10;99.30;;;;;;5057903;28;20028;-84
2023/04/28 04:50:46;;;;;;;14.32;7.57;;;8.10;99.60;;;;;;5054517;28;20090;-84
2023/04/28 04:53:12;;;;;;;14.07;7.53;;;8.10;99.70;;;;;;5054144;28;20047;-84
2023/04/28 04:55:38;;;;;;;17.85;7.72;;;8.10;99.60;;;;;;5053750;28;20036;-84
2023/04/28 04:58:04;;;;;;;13.13;7.15;;;8.10;99.90;;;;;;5063941;28;20624;-84
2023/04/28 05:00:29;;;;;;;13.32;7.63;;;8.10;99.90;;;;;;5057953;28;20052;-84
2023/04/28 05:02:55;;;;;;;13.63;6.85;;;8.20;99.90;;;;;;5074368;28;20520;-84
2023/04/28 05:05:21;;;;;;;16.38;9.32;;;8.20;99.90;;;;;;5074131;28;20039;-84
2023/04/28 05:07:46;;;;;;;13.48;7.97;;;8.20;99.90;;;;;;5057757;28;20043;-84
2023/04/28 05:10:12;;;;;;;13.38;7.05;;;8.20;99.90;;;;;;5056970;28;20063;-84
2023/04/28 05:12:38;;;;;;;15.25;7.07;;;8.20;99.90;;;;;;5074816;28;20093;-84
2023/04/28 05:15:05;;;;;;;14.95;7.30;;;8.20;99.90;;;;;;5074057;28;20123;-84
2023/04/28 05:17:31;;;;;;;12.60;6.95;;;8.20;99.90;;;;;;5048987;28;20040;-83
2023/04/28 05:19:57;;;;;;;13.20;7.38;;;8.20;99.90;;;;;;5057640;28;20513;-84
2023/04/28 05:22:22;;;;;;;14.70;7.57;;;8.30;99.90;;;;;;5056575;28;20059;-84
2023/04/28 05:24:48;;;;;;;16.27;7.53;;;8.20;99.90;;;;;;5053870;28;20041;-84
2023/04/28 05:27:13;;;;;;;13.43;7.53;;;8.30;99.90;;;;;;5037192;28;20194;-84
2023/04/28 05:29:39;;;;;;;15.60;7.25;;;8.30;99.90;;;;;;5053490;28;20029;-84
2023/04/28 05:32:05;;;;;;;14.35;7.00;;;8.30;99.90;;;;;;5037265;28;20040;-84
2023/04/28 05:34:30;;;;;;;13.45;6.72;;;8.30;99.90;;;;;;5055980;28;20049;-84
2023/04/28 05:36:56;;;;;;;12.77;6.65;;;8.40;99.90;;;;;;5073407;28;20118;-84
2023/04/28 05:39:21;;;;;;;12.20;6.68;;;8.40;99.90;;;;;;5057134;28;20047;-84
2023/04/28 05:41:47;;;;;;;13.10;6.15;;;8.40;99.90;;;;;;5052780;28;20079;-84
2023/04/28 05:44:13;;;;;;;13.95;7.28;;;8.40;99.90;;;;;;5051845;28;20664;-85
2023/04/28 05:46:38;;;;;;;13.52;6.57;;;8.40;99.90;;;;;;5051839;28;20490;-84
2023/04/28 05:49:04;;;;;;;12.25;6.63;;;8.40;99.90;;;;;;5059790;28;20031;-84
2023/04/28 05:51:29;;;;;;;15.48;7.20;;;8.40;99.90;;;;;;5071889;28;20098;-84
2023/04/28 05:53:55;;;;;;;16.08;7.07;;;8.50;99.90;;;;;;5056525;28;20043;-84
2023/04/28 05:56:21;;;;;;;18.67;7.85;;;8.50;99.90;;;;;;5073490;28;20040;-84
2023/04/28 05:58:48;;;;;;;16.13;6.97;;;8.50;99.90;;;;;;5073314;28;20433;-84
2023/04/28 06:01:14;;;;;;;13.43;6.75;;;8.50;99.90;;;;;;5047191;28;20051;-84
2023/04/28 06:03:40;;;;;;;14.63;7.28;;;8.60;99.90;;;;;;5073153;28;20044;-84
2023/04/28 06:06:07;;;;;;;12.82;6.82;;;8.60;99.90;;;;;;5050916;28;20046;-85
2023/04/28 06:08:33;;;;;;;13.95;7.38;;;8.60;99.90;;;;;;5068234;28;20125;-85
2023/04/28 06:10:58;;;;;;;15.60;7.28;;;8.70;99.90;;;;;;5071899;28;20068;-85
2023/04/28 06:13:24;;;;;;;15.27;7.32;;;8.70;99.90;;;;;;5069090;28;20044;-84
2023/04/28 06:15:50;;;;;;;12.05;7.18;;;8.70;99.90;;;;;;5036090;28;20119;-85
2023/04/28 06:18:15;;;;;;;11.77;6.90;;;8.70;99.90;;;;;;5035742;28;20037;-84
2023/04/28 06:20:41;;;;;;;12.23;6.75;;;8.80;99.90;;;;;;5052943;28;20039;-84
2023/04/28 06:23:08;;;;;;;13.85;6.30;;;8.80;99.90;;;;;;5055030;28;20031;-84
2023/04/28 06:25:35;;;;;;;11.10;6.43;;;8.80;99.90;;;;;;5040322;28;20036;-84
2023/04/28 06:28:01;;;;;;;12.63;6.43;;;8.80;99.90;;;;;;5052669;28;20452;-84
2023/04/28 06:30:26;;;;;;;12.10;6.13;;;8.90;99.90;;;;;;5061591;28;20559;-84
2023/04/28 06:32:52;;;;;;;11.90;6.20;;;8.90;99.90;;;;;;5072309;28;20074;-84
2023/04/28 06:35:18;;;;;;;14.27;6.82;;;8.90;99.90;;;;;;5071881;28;20073;-84
2023/04/28 06:37:43;;;;;;;12.20;6.00;;;8.90;99.90;;;;;;5054847;28;20047;-84
2023/04/28 06:40:09;;;;;;;14.18;6.45;;;9.00;99.90;;;;;;5051008;28;20055;-84
2023/04/28 06:42:35;;;;;;;12.13;6.25;;;9.00;99.90;;;;;;5058845;28;20527;-84
2023/04/28 06:45:02;;;;;;;11.38;5.95;;;9.00;99.90;;;;;;5070989;28;20036;-84
2023/04/28 06:47:27;;;;;;;11.95;5.80;;;9.00;99.90;;;;;;5070055;28;20066;-84
2023/04/28 06:49:53;;;;;;;11.98;5.75;;;9.10;99.90;;;;;;5055189;28;20523;-84
2023/04/28 06:52:20;;;;;;;13.55;6.13;;;9.10;99.90;;;;;;5071434;28;20080;-84
2023/04/28 06:54:46;;;;;;;12.73;5.85;;;9.10;99.90;;;;;;5065617;28;20063;-83
2023/04/28 06:57:12;;;;;;;12.93;5.78;;;9.20;99.90;;;;;;5053186;28;20070;-84
2023/04/28 06:59:38;;;;;;;11.95;5.88;;;9.20;99.90;;;;;;5070977;28;20478;-84
2023/04/28 07:02:04;;;;;;;11.90;6.15;;;9.20;99.70;;;;;;5072221;28;20086;-84
2023/04/28 07:04:29;;;;;;;11.77;5.70;;;9.30;99.30;;;;;;5052606;28;20498;-84
2023/04/28 07:06:55;;;;;;;13.55;6.07;;;9.30;99.10;;;;;;5052173;28;20036;-85
2023/04/28 07:09:21;;;;;;;11.63;5.28;;;9.30;99.10;;;;;;5037426;28;20031;-84
2023/04/28 07:11:47;;;;;;;10.82;5.15;;;9.40;99.10;;;;;;5056121;28;20036;-84
2023/04/28 07:14:12;;;;;;;14.52;5.32;;;9.40;99.10;;;;;;5051931;28;20041;-84
2023/04/28 07:16:38;;;;;;;11.82;5.88;;;9.50;98.90;;;;;;5062021;28;20036;-85
2023/04/28 07:19:03;;;;;;;11.15;5.13;;;9.50;98.90;;;;;;5074471;28;20438;-85
2023/04/28 07:21:29;;;;;;;10.55;5.25;;;9.60;98.90;;;;;;5076598;28;20047;-84
2023/04/28 07:23:57;;;;;;;12.02;5.57;;;9.60;98.50;;;;;;5076077;28;20048;-84
2023/04/28 07:26:23;;;;;;;12.65;5.93;;;9.60;98.50;;;;;;5076273;28;20143;-84
2023/04/28 07:28:48;;;;;;;12.90;6.15;;;9.70;98.70;;;;;;5067317;28;20116;-84
2023/04/28 07:31:14;;;;;;;10.35;5.93;;;9.70;99.10;;;;;;5058658;28;20405;-84
2023/04/28 07:33:40;;;;;;;14.10;5.28;;;9.80;99.60;;;;;;5069498;28;20063;-84
2023/04/28 07:36:06;;;;;;;11.25;5.47;;;9.70;98.60;;;;;;5057383;28;20553;-84
2023/04/28 07:38:35;;;;;;;14.52;6.15;;;9.80;98.40;;;;;;5059599;28;20047;-84
2023/04/28 07:41:02;;;;;;;11.82;5.50;;;9.80;98.60;;;;;;5058596;28;20081;-84
2023/04/28 07:43:28;;;;;;;13.57;6.10;;;9.90;98.30;;;;;;5076688;28;20036;-84
2023/04/28 07:45:54;;;;;;;10.93;5.32;;;10.00;98.30;;;;;;5059801;28;20097;-84
2023/04/28 07:48:20;;;;;;;10.75;5.47;;;10.10;98.00;;;;;;5075012;28;20032;-84
2023/04/28 07:50:46;;;;;;;12.23;5.72;;;10.10;97.90;;;;;;5058094;28;20118;-84
2023/04/28 07:53:11;;;;;;;10.13;5.05;;;10.20;97.80;;;;;;5054852;28;20064;-84
2023/04/28 07:55:37;;;;;;;12.40;5.45;;;10.30;96.80;;;;;;5053878;28;20055;-84
2023/04/28 07:58:03;;;;;;;12.13;5.70;;;10.30;96.60;;;;;;5058971;28;20039;-84
2023/04/28 08:00:29;;;;;;;11.95;5.68;;;10.40;96.80;;;;;;5059846;28;20525;-84
2023/04/28 08:02:56;;;;;;;12.05;5.65;;;10.50;96.30;;;;;;5071169;28;20036;-84
2023/04/28 08:05:22;;;;;;;12.18;6.18;;;10.60;96.40;;;;;;5076283;28;20631;-84
2023/04/28 08:07:47;;;;;;;11.77;5.88;;;10.60;96.10;;;;;;5073498;28;20088;-84
2023/04/28 08:10:13;;;;;;;10.30;5.45;;;10.60;96.30;;;;;;5057577;28;20032;-84
2023/04/28 08:12:39;;;;;;;10.00;5.72;;;10.70;96.00;;;;;;5074624;28;20101;-84
2023/04/28 08:15:06;;;;;;;11.57;6.35;;;10.70;95.70;;;;;;5073223;28;20046;-84
2023/04/28 08:17:31;;;;;;;12.38;5.97;;;10.80;96.00;;;;;;5056959;28;20039;-84
2023/04/28 08:19:58;;;;;;;12.75;5.90;;;10.80;96.20;;;;;;5067592;28;20028;-85
2023/04/28 08:22:23;;;;;;;10.38;6.40;;;10.90;96.50;;;;;;5058090;28;20042;-84
2023/04/28 08:24:49;;;;;;;12.45;6.00;;;11.00;96.80;;;;;;5084067;28;20036;-83
2023/04/28 08:27:14;;;;;;;17.15;6.20;;;11.00;97.00;;;;;;5075285;28;20047;-84
2023/04/28 08:29:40;;;;;;;13.18;6.60;;;11.10;96.80;;;;;;5074392;28;20496;-84
2023/04/28 08:32:06;;;;;;;15.23;5.80;;;11.10;96.70;;;;;;5055890;28;20424;-84
2023/04/28 08:34:32;;;;;;;14.57;6.35;;;11.20;96.80;;;;;;5061025;28;20044;-84
2023/04/28 08:36:58;;;;;;;12.05;6.18;;;11.20;96.80;;;;;;5069964;28;20033;-84
2023/04/28 08:39:25;;;;;;;10.98;6.03;;;11.30;96.80;;;;;;5069521;28;20085;-84
2023/04/28 08:41:51;;;;;;;14.00;6.93;;;11.30;97.20;;;;;;5053643;28;20036;-84
2023/04/28 08:44:17;;;;;;;12.93;5.53;;;11.40;97.20;;;;;;5073054;28;20111;-84
2023/04/28 08:46:44;;;;;;;16.27;6.40;;;11.50;96.90;;;;;;5074125;28;20205;-84
2023/04/28 08:49:17;;;;;;;13.23;6.55;;;11.50;96.70;;;;;;5072752;28;20040;-84
2023/04/28 08:51:58;;;;;;;14.43;6.72;;;11.60;96.40;;;;;;5070667;28;20028;-83
2023/04/28 08:54:30;;;;;;;13.05;6.50;;;11.70;96.30;;;;;;5071504;28;20131;-84
2023/04/28 08:56:56;;;;;;;12.60;7.00;;;11.70;96.40;;;;;;5056783;28;20039;-85
2023/04/28 08:59:22;;;;;;;12.93;6.72;;;11.70;96.00;;;;;;5073349;28;20043;-85
2023/04/28 09:01:49;;;;;;;13.73;6.95;;;11.80;96.10;;;;;;5072140;28;20032;-84
2023/04/28 09:04:19;;;;;;;11.60;6.30;;;11.80;96.10;;;;;;5056397;28;20036;-85
2023/04/28 09:06:47;;;;;;;11.15;5.85;;;11.90;95.90;;;;;;5073271;28;20036;-85
2023/04/28 09:09:26;;;;;;;13.27;6.45;;;11.90;96.40;;;;;;5053470;28;20032;-84
2023/04/28 09:11:58;;;;;;;12.88;5.95;;;12.00;96.60;;;;;;5073611;28;20549;-85
2023/04/28 09:14:28;;;;;;;11.95;6.32;;;12.10;96.30;;;;;;5052565;28;20036;-85
2023/04/28 09:16:54;;;;;;;12.00;7.32;;;12.20;96.90;;;;;;5056769;28;20066;-85
2023/04/28 09:19:20;;;;;;;13.20;6.88;;;12.30;97.00;;;;;;5055584;28;20036;-85
2023/04/28 09:21:47;;;;;;;13.93;6.55;;;12.40;96.90;;;;;;5050925;28;20032;-84
2023/04/28 09:24:35;;;;;;;14.82;6.97;;;12.60;96.90;;;;;;5072308;28;20066;-84
2023/04/28 09:27:03;;;;;;;12.40;6.75;;;12.70;96.50;;;;;;5053548;28;20028;-84
2023/04/28 09:29:30;;;;;;;13.18;7.07;;;12.80;96.10;;;;;;5072676;28;20489;-85
2023/04/28 09:32:15;;;;;;;13.90;9.95;;;12.90;95.60;;;;;;5054125;28;20412;-85
2023/04/28 09:34:47;;;;;;;11.43;6.68;;;13.00;94.20;;;;;;5070819;28;20485;-85
2023/04/28 09:37:15;;;;;;;12.82;7.53;;;13.00;94.30;;;;;;5070427;28;20052;-85
2023/04/28 09:39:41;;;;;;;16.40;7.57;;;13.10;94.50;;;;;;5072559;28;20123;-85
2023/04/28 09:42:07;;;;;;;14.70;6.88;;;13.10;94.50;;;;;;5071888;28;20469;-85
2023/04/28 09:44:32;;;;;;;13.27;7.53;;;13.10;94.60;;;;;;5056427;28;20118;-85
2023/04/28 09:46:58;;;;;;;11.07;6.93;;;13.20;95.00;;;;;;5070769;28;20724;-85
2023/04/28 09:49:24;;;;;;;13.60;9.82;;;13.20;95.60;;;;;;5055961;28;20493;-85
2023/04/28 09:51:49;;;;;;;13.60;9.20;;;13.30;94.90;;;;;;5072359;28;20481;-85
2023/04/28 09:54:15;;;;;;;14.93;7.53;;;13.40;93.70;;;;;;5071821;28;20032;-85
2023/04/28 09:56:44;;;;;;;13.65;7.53;;;13.50;94.00;;;;;;5056148;28;20027;-85
2023/04/28 09:59:10;;;;;;;13.38;7.60;;;13.40;94.50;;;;;;5072822;28;20076;-85
2023/04/28 10:01:39;;;;;;;13.15;7.82;;;13.50;94.40;;;;;;5069942;28;20095;-85
2023/04/28 10:04:06;;;;;;;15.00;9.13;;;13.60;94.40;;;;;;5071328;28;20489;-86
2023/04/28 10:06:35;;;;;;;12.82;7.95;;;13.80;95.70;;;;;;5054477;28;20131;-85
2023/04/28 10:09:00;;;;;;;13.18;9.38;;;14.00;95.60;;;;;;5071624;28;20109;-85
2023/04/28 10:11:27;;;;;;;14.63;9.65;;;14.20;96.40;;;;;;5072344;28;20036;-86
2023/04/28 10:13:53;;;;;;;16.52;7.85;;;14.40;95.70;;;;;;5053462;28;20042;-85
2023/04/28 10:16:19;;;;;;;12.40;6.75;;;14.60;95.00;;;;;;5055695;28;20040;-85
2023/04/28 10:18:45;;;;;;;13.57;9.68;;;14.70;94.30;;;;;;5069536;28;20094;-86
2023/04/28 10:21:15;;;;;;;12.52;9.38;;;14.90;93.40;;;;;;5055506;28;20127;-85
2023/04/28 10:24:03;;;;;;;11.45;7.85;;;15.10;94.00;;;;;;5069924;28;20115;-85
2023/04/28 10:27:09;;;;;;;12.13;9.15;;;15.30;94.40;;;;;;5053403;28;20044;-86
2023/04/28 10:29:35;;;;;;;15.07;9.52;;;15.50;92.50;;;;;;5071787;28;20047;-86
2023/04/28 10:32:20;;;;;;;12.85;9.38;;;15.60;93.00;;;;;;5053036;28;20143;-85
2023/04/28 10:34:47;;;;;;;13.55;9.50;;;15.70;91.70;;;;;;5056553;28;20071;-86
2023/04/28 10:37:17;;;;;;;13.05;7.65;;;15.80;91.20;;;;;;5051495;28;20597;-86
2023/04/28 10:40:21;;;;;;;12.98;8.80;;;15.80;90.90;;;;;;5066808;28;20118;-85
2023/04/28 10:42:55;;;;;;;13.15;8.70;;;15.80;91.70;;;;;;5055998;28;20226;-86
2023/04/28 10:45:51;;;;;;;12.45;8.73;;;15.80;92.00;;;;;;5071640;28;20076;-86
2023/04/28 10:48:41;;;;;;;14.50;9.40;;;15.90;92.30;;;;;;5063841;28;20037;-85
2023/04/28 10:51:06;;;;;;;13.50;9.60;;;15.90;93.10;;;;;;5061724;28;20046;-85
2023/04/28 10:53:44;;;;;;;13.80;9.40;;;16.00;93.30;;;;;;5055745;28;20044;-86
2023/04/28 10:56:21;;;;;;;11.65;8.90;;;16.00;92.40;;;;;;5054820;28;20043;-86
2023/04/28 10:58:49;;;;;;;15.50;8.05;;;16.00;92.40;;;;;;5056474;28;20036;-86
2023/04/28 11:01:18;;;;;;;13.35;7.57;;;15.90;92.90;;;;;;5055267;28;20274;-85
2023/04/28 11:03:47;;;;;;;12.90;8.25;;;15.90;93.80;;;;;;5039153;28;20036;-85
2023/04/28 11:06:22;;;;;;;14.88;7.90;;;15.80;93.20;;;;;;5054540;28;20075;-85
2023/04/28 11:08:48;;;;;;;11.52;7.35;;;15.80;93.20;;;;;;5040110;28;20064;-85
2023/04/28 11:11:15;;;;;;;11.77;8.20;;;15.90;94.80;;;;;;5052602;28;20087;-85
2023/04/28 11:13:41;;;;;;;11.45;8.35;;;15.90;95.70;;;;;;5052011;28;20062;-85
2023/04/28 11:16:07;;;;;;;12.63;7.72;;;16.00;96.70;;;;;;5035936;28;20052;-85
2023/04/28 11:18:49;;;;;;;12.00;5.97;;;16.10;96.90;;;;;;5053096;28;20632;-85
2023/04/28 11:21:15;;;;;;;10.98;7.05;;;16.10;96.00;;;;;;5060101;28;20044;-85
2023/04/28 11:23:42;;;;;;;11.98;7.18;;;16.10;96.10;;;;;;5052103;28;20542;-85
2023/04/28 11:26:08;;;;;;;11.00;7.20;;;16.20;95.30;;;;;;5063753;28;20036;-85
2023/04/28 11:28:35;;;;;;;11.73;7.22;;;16.20;94.60;;;;;;5055004;28;20126;-85
2023/04/28 11:31:22;;;;;;;10.88;7.85;;;16.20;95.10;;;;;;5054122;28;20036;-85
2023/04/28 11:33:55;;;;;;;11.43;6.75;;;16.30;94.90;;;;;;5070871;28;20061;-86
2023/04/28 11:36:35;;;;;;;12.57;7.53;;;16.30;94.20;;;;;;5051276;28;20036;-86
2023/04/28 11:39:06;;;;;;;11.63;7.55;;;16.30;94.50;;;;;;5069341;28;20032;-86
2023/04/28 11:41:33;;;;;;;11.20;7.38;;;16.30;93.80;;;;;;5069828;28;20032;-86
2023/04/28 11:43:59;;;;;;;14.00;8.00;;;16.30;95.60;;;;;;5052753;28;20061;-86
2023/04/28 11:46:25;;;;;;;14.07;8.65;;;16.30;95.30;;;;;;5070718;28;20039;-86
2023/04/28 11:49:04;;;;;;;13.60;8.23;;;16.30;94.80;;;;;;5070769;28;20064;-86
2023/04/28 11:51:37;;;;;;;9.05;5.43;;;16.40;94.60;;;;;;5070463;28;20485;-85
2023/04/28 11:54:06;;;;;;;10.13;6.97;;;16.40;96.20;;;;;;5071213;28;20027;-85
2023/04/28 11:56:37;;;;;;;12.98;8.27;;;16.40;96.50;;;;;;5064037;28;20036;-85
2023/04/28 11:59:04;;;;;;;13.52;7.15;;;16.50;95.80;;;;;;5070706;28;20036;-85
2023/04/28 12:01:32;;;;;;;12.40;8.40;;;16.40;95.40;;;;;;5048925;28;20401;-85
2023/04/28 12:03:58;;;;;;;10.98;7.75;;;16.30;94.50;;;;;;5070757;28;20036;-86
2023/04/28 12:06:23;;;;;;;11.73;7.82;;;16.30;94.90;;;;;;5069237;28;20048;-85
2023/04/28 12:08:51;;;;;;;13.23;8.43;;;16.30;96.10;;;;;;5054898;28;20118;-85
2023/04/28 12:11:17;;;;;;;14.35;8.38;;;16.20;95.90;;;;;;5037580;28;20123;-85
2023/04/28 12:13:43;;;;;;;11.77;8.73;;;16.20;96.50;;;;;;5065291;28;20124;-85
2023/04/28 12:16:08;;;;;;;13.15;9.65;;;16.20;95.90;;;;;;5057940;28;20046;-86
2023/04/28 12:18:35;;;;;;;12.43;9.48;;;16.10;96.70;;;;;;5071652;28;20123;-86
2023/04/28 12:21:02;;;;;;;14.23;9.15;;;16.10;97.60;;;;;;5067973;28;20531;-86
2023/04/28 12:23:38;;;;;;;15.88;10.05;;;16.10;98.40;;;;;;5074938;28;20043;-85
2023/04/28 12:26:04;;;;;;;12.07;9.15;;;16.10;99.90;;;;;;5064748;28;20050;-85
2023/04/28 12:28:43;;;;;;;13.93;7.93;;;16.10;99.90;;;;;;5058745;28;20036;-86
2023/04/28 12:31:09;;;;;;;11.68;9.95;;;15.90;99.90;;;;;;5045935;28;20566;-86
2023/04/28 12:33:39;;;;;;;14.27;11.05;;;15.90;99.90;;;;;;5055327;28;20041;-86
2023/04/28 12:36:06;;;;;;;15.55;12.65;;;15.90;99.90;;;;;;5058399;28;20375;-86
2023/04/28 12:38:32;;;;;;;16.73;12.68;;;15.80;99.90;;;;;;5057079;28;20032;-86
2023/04/28 12:40:57;;;;;;;14.75;12.95;;;15.60;99.90;;;;;;5057432;28;20562;-85
2023/04/28 12:43:24;;;;;;;15.70;13.07;;;15.60;99.90;;;;;;5063708;28;20418;-86